sensor_id;sensor_type;location;lat;lon;timestamp;pressure;altitude;pressure_sealevel;temperature;humidity
75923;BME280;64602;47.542;19.090;2022-12-07T06:25:53;100228.44;;;3.94;85.67
75923;BME280;64602;47.542;19.090;2022-12-07T06:30:59;100206.34;;;3.92;84.87
75923;BME280;64602;47.542;19.090;2022-12-07T06:36:01;100219.75;;;3.98;84.99
75923;BME280;64602;47.542;19.090;2022-12-07T06:41:04;100218.94;;;3.91;86.01
75923;BME280;64602;47.542;19.090;2022-12-07T06:46:06;100224.97;;;3.73;86.72
75923;BME280;64602;47.542;19.090;2022-12-07T06:51:08;100229.34;;;3.54;87.17
75923;BME280;64602;47.542;19.090;2022-12-07T06:56:11;100243.81;;;3.47;87.58
75923;BME280;64602;47.542;19.090;2022-12-07T07:01:16;100239.50;;;3.46;87.87
75923;BME280;64602;47.542;19.090;2022-12-07T07:06:18;100240.94;;;3.48;87.72
75923;BME280;64602;47.542;19.090;2022-12-07T07:11:20;100258.03;;;3.60;87.43
75923;BME280;64602;47.542;19.090;2022-12-07T07:16:23;100242.38;;;3.51;87.42
75923;BME280;64602;47.542;19.090;2022-12-07T07:21:25;100254.97;;;3.57;87.32
75923;BME280;64602;47.542;19.090;2022-12-07T07:26:27;100259.53;;;3.43;87.11
75923;BME280;64602;47.542;19.090;2022-12-07T07:31:30;100251.91;;;3.40;87.35
75923;BME280;64602;47.542;19.090;2022-12-07T07:36:32;100249.41;;;3.32;87.40
75923;BME280;64602;47.542;19.090;2022-12-07T07:41:34;100251.47;;;3.43;87.62
75923;BME280;64602;47.542;19.090;2022-12-07T07:46:36;100254.78;;;3.32;87.80
75923;BME280;64602;47.542;19.090;2022-12-07T07:51:38;100255.16;;;3.49;87.94
75923;BME280;64602;47.542;19.090;2022-12-07T07:56:40;100248.94;;;3.61;88.24
75923;BME280;64602;47.542;19.090;2022-12-07T08:01:42;100243.19;;;3.64;87.94
75923;BME280;64602;47.542;19.090;2022-12-07T08:06:44;100248.72;;;3.76;87.43
75923;BME280;64602;47.542;19.090;2022-12-07T08:11:46;100245.56;;;3.93;87.12
75923;BME280;64602;47.542;19.090;2022-12-07T08:16:48;100258.13;;;4.05;86.57
75923;BME280;64602;47.542;19.090;2022-12-07T08:21:50;100260.31;;;4.28;86.08
75923;BME280;64602;47.542;19.090;2022-12-07T08:26:53;100269.03;;;4.56;85.48
75923;BME280;64602;47.542;19.090;2022-12-07T08:31:55;100276.62;;;4.65;84.68
75923;BME280;64602;47.542;19.090;2022-12-07T08:36:57;100278.13;;;4.61;84.44
75923;BME280;64602;47.542;19.090;2022-12-07T08:41:59;100282.47;;;4.94;83.92
75923;BME280;64602;47.542;19.090;2022-12-07T08:47:04;100267.75;;;5.22;83.49
75923;BME280;64602;47.542;19.090;2022-12-07T08:52:07;100269.91;;;5.38;82.37
75923;BME280;64602;47.542;19.090;2022-12-07T08:57:10;100285.66;;;5.60;81.25
75923;BME280;64602;47.542;19.090;2022-12-07T09:02:13;100289.56;;;5.82;81.36
75923;BME280;64602;47.542;19.090;2022-12-07T09:07:15;100280.31;;;5.96;81.24
75923;BME280;64602;47.542;19.090;2022-12-07T09:12:18;100280.41;;;6.08;80.80
75923;BME280;64602;47.542;19.090;2022-12-07T09:17:20;100279.81;;;6.25;79.49
75923;BME280;64602;47.542;19.090;2022-12-07T09:22:22;100274.53;;;6.48;78.87
75923;BME280;64602;47.542;19.090;2022-12-07T09:27:24;100272.16;;;6.70;77.56
75923;BME280;64602;47.542;19.090;2022-12-07T09:32:26;100279.12;;;6.90;75.23
75923;BME280;64602;47.542;19.090;2022-12-07T09:37:28;100254.50;;;6.98;75.01
75923;BME280;64602;47.542;19.090;2022-12-07T09:42:37;100251.38;;;7.24;73.51
75923;BME280;64602;47.542;19.090;2022-12-07T09:47:41;100251.16;;;7.38;72.72
75923;BME280;64602;47.542;19.090;2022-12-07T09:52:45;100247.72;;;8.42;70.07
75923;BME280;64602;47.542;19.090;2022-12-07T09:57:49;100252.06;;;8.71;66.89
75923;BME280;64602;47.542;19.090;2022-12-07T10:02:59;100255.13;;;8.34;67.78
75923;BME280;64602;47.542;19.090;2022-12-07T10:08:01;100232.97;;;8.49;66.78
75923;BME280;64602;47.542;19.090;2022-12-07T10:13:09;100230.09;;;10.62;59.91
75923;BME280;64602;47.542;19.090;2022-12-07T10:23:29;100249.06;;;13.52;50.06
75923;BME280;64602;47.542;19.090;2022-12-07T10:28:35;100249.75;;;17.80;42.26
75923;BME280;64602;47.542;19.090;2022-12-07T10:33:55;100249.88;;;17.88;39.61
75923;BME280;64602;47.542;19.090;2022-12-07T10:39:20;100243.87;;;16.31;42.43
75923;BME280;64602;47.542;19.090;2022-12-07T10:44:25;100230.22;;;15.83;42.80
75923;BME280;64602;47.542;19.090;2022-12-07T11:00:37;100235.22;;;18.71;37.30
75923;BME280;64602;47.542;19.090;2022-12-07T11:06:04;100210.13;;;18.00;36.09
75923;BME280;64602;47.542;19.090;2022-12-07T11:17:12;100200.94;;;14.02;44.63
75923;BME280;64602;47.542;19.090;2022-12-07T11:27:37;100191.31;;;10.13;53.57
75923;BME280;64602;47.542;19.090;2022-12-07T11:38:14;100183.19;;;9.30;56.21
75923;BME280;64602;47.542;19.090;2022-12-07T11:43:32;100185.25;;;8.89;57.47
75923;BME280;64602;47.542;19.090;2022-12-07T11:49:01;100191.25;;;8.91;57.58
75923;BME280;64602;47.542;19.090;2022-12-07T11:54:14;100184.16;;;8.73;58.31
75923;BME280;64602;47.542;19.090;2022-12-07T11:59:32;100181.44;;;8.56;58.88
75923;BME280;64602;47.542;19.090;2022-12-07T12:04:50;100179.06;;;8.02;60.20
75923;BME280;64602;47.542;19.090;2022-12-07T12:10:13;100178.16;;;8.54;59.45
75923;BME280;64602;47.542;19.090;2022-12-07T12:25:41;100163.03;;;9.04;55.18
75923;BME280;64602;47.542;19.090;2022-12-07T12:30:44;100149.88;;;9.12;55.42
75923;BME280;64602;47.542;19.090;2022-12-07T12:46:58;100149.50;;;14.24;43.46
75923;BME280;64602;47.542;19.090;2022-12-07T12:57:32;100141.69;;;12.25;47.58
75923;BME280;64602;47.542;19.090;2022-12-07T13:02:36;100135.00;;;10.47;51.77
75923;BME280;64602;47.542;19.090;2022-12-07T13:23:31;100140.72;;;8.63;55.84
75923;BME280;64602;47.542;19.090;2022-12-07T13:28:39;100157.19;;;8.16;55.79
75923;BME280;64602;47.542;19.090;2022-12-07T13:33:44;100167.34;;;7.97;57.38
75923;BME280;64602;47.542;19.090;2022-12-07T13:38:57;100144.28;;;7.77;57.27
75923;BME280;64602;47.542;19.090;2022-12-07T13:44:03;100147.84;;;7.42;58.50
75923;BME280;64602;47.542;19.090;2022-12-07T13:49:22;100158.75;;;7.47;59.27
75923;BME280;64602;47.542;19.090;2022-12-07T13:54:25;100174.88;;;7.07;61.34
75923;BME280;64602;47.542;19.090;2022-12-07T13:59:27;100169.47;;;6.95;62.13
75923;BME280;64602;47.542;19.090;2022-12-07T14:04:37;100161.47;;;6.77;62.83
75923;BME280;64602;47.542;19.090;2022-12-07T14:09:39;100183.03;;;6.77;64.36
75923;BME280;64602;47.542;19.090;2022-12-07T14:14:47;100171.41;;;6.64;64.32
75923;BME280;64602;47.542;19.090;2022-12-07T14:19:58;100161.88;;;6.50;64.57
75923;BME280;64602;47.542;19.090;2022-12-07T14:30:17;100172.56;;;6.15;65.68
75923;BME280;64602;47.542;19.090;2022-12-07T14:35:20;100172.50;;;6.03;67.26
75923;BME280;64602;47.542;19.090;2022-12-07T14:40:24;100170.38;;;5.87;68.35
75923;BME280;64602;47.542;19.090;2022-12-07T14:45:26;100175.84;;;5.80;68.67
75923;BME280;64602;47.542;19.090;2022-12-07T14:50:29;100170.94;;;5.59;69.21
75923;BME280;64602;47.542;19.090;2022-12-07T14:55:31;100183.50;;;5.46;69.25
75923;BME280;64602;47.542;19.090;2022-12-07T15:00:33;100179.41;;;5.19;69.26
75923;BME280;64602;47.542;19.090;2022-12-07T15:05:36;100187.34;;;5.13;69.51
75923;BME280;64602;47.542;19.090;2022-12-07T15:10:39;100198.38;;;5.05;70.12
75923;BME280;64602;47.542;19.090;2022-12-07T15:15:41;100183.00;;;4.87;69.97
75923;BME280;64602;47.542;19.090;2022-12-07T15:20:44;100183.50;;;4.78;70.59
75923;BME280;64602;47.542;19.090;2022-12-07T15:25:48;100192.28;;;4.66;70.81
75923;BME280;64602;47.542;19.090;2022-12-07T15:30:50;100201.00;;;4.62;71.49
75923;BME280;64602;47.542;19.090;2022-12-07T15:35:53;100192.19;;;4.48;71.83
75923;BME280;64602;47.542;19.090;2022-12-07T15:40:55;100206.44;;;4.48;72.03
75923;BME280;64602;47.542;19.090;2022-12-07T15:45:57;100211.88;;;4.42;72.52
75923;BME280;64602;47.542;19.090;2022-12-07T15:51:06;100216.06;;;4.31;73.17
75923;BME280;64602;47.542;19.090;2022-12-07T15:56:09;100223.91;;;4.33;72.76
75923;BME280;64602;47.542;19.090;2022-12-07T16:01:13;100230.13;;;4.26;73.65
75923;BME280;64602;47.542;19.090;2022-12-07T16:06:17;100226.72;;;4.13;74.52
75923;BME280;64602;47.542;19.090;2022-12-07T16:11:19;100218.03;;;4.11;73.34
75923;BME280;64602;47.542;19.090;2022-12-07T16:16:22;100224.59;;;4.15;73.22
75923;BME280;64602;47.542;19.090;2022-12-07T16:21:24;100219.22;;;4.15;72.95
75923;BME280;64602;47.542;19.090;2022-12-07T16:26:27;100224.84;;;4.13;72.76
75923;BME280;64602;47.542;19.090;2022-12-07T16:31:29;100220.31;;;4.07;73.49
75923;BME280;64602;47.542;19.090;2022-12-07T16:36:31;100226.56;;;3.94;74.15
75923;BME280;64602;47.542;19.090;2022-12-07T16:41:53;100209.66;;;3.80;75.20
75923;BME280;64602;47.542;19.090;2022-12-07T16:46:55;100222.28;;;3.80;75.49
75923;BME280;64602;47.542;19.090;2022-12-07T16:51:58;100221.09;;;3.62;75.58
75923;BME280;64602;47.542;19.090;2022-12-07T16:57:20;100226.66;;;3.61;76.17
75923;BME280;64602;47.542;19.090;2022-12-07T17:02:25;100236.00;;;3.45;76.49
75923;BME280;64602;47.542;19.090;2022-12-07T17:07:27;100243.44;;;3.43;77.55
75923;BME280;64602;47.542;19.090;2022-12-07T17:12:29;100227.94;;;3.25;77.81
75923;BME280;64602;47.542;19.090;2022-12-07T17:17:31;100237.47;;;3.21;78.18
75923;BME280;64602;47.542;19.090;2022-12-07T17:22:33;100255.00;;;3.10;78.40
75923;BME280;64602;47.542;19.090;2022-12-07T17:27:36;100249.84;;;2.95;79.38
75923;BME280;64602;47.542;19.090;2022-12-07T17:32:38;100254.59;;;2.87;80.13
75923;BME280;64602;47.542;19.090;2022-12-07T17:37:40;100243.03;;;2.80;80.52
75923;BME280;64602;47.542;19.090;2022-12-07T17:42:49;100252.91;;;2.86;80.63
75923;BME280;64602;47.542;19.090;2022-12-07T17:47:52;100259.72;;;2.82;80.43
75923;BME280;64602;47.542;19.090;2022-12-07T17:52:54;100245.06;;;2.71;80.15
75923;BME280;64602;47.542;19.090;2022-12-07T17:58:12;100249.59;;;2.70;80.43
75923;BME280;64602;47.542;19.090;2022-12-07T18:03:14;100249.00;;;2.75;80.26
75923;BME280;64602;47.542;19.090;2022-12-07T18:08:16;100256.44;;;2.80;79.48
75923;BME280;64602;47.542;19.090;2022-12-07T18:13:18;100259.06;;;2.66;79.74
75923;BME280;64602;47.542;19.090;2022-12-07T18:18:40;100278.88;;;2.65;80.11
75923;BME280;64602;47.542;19.090;2022-12-07T18:23:43;100284.81;;;2.54;80.75
75923;BME280;64602;47.542;19.090;2022-12-07T18:28:46;100264.81;;;2.43;81.25
75923;BME280;64602;47.542;19.090;2022-12-07T18:33:48;100276.16;;;2.45;81.22
75923;BME280;64602;47.542;19.090;2022-12-07T18:38:50;100275.25;;;2.31;81.63
75923;BME280;64602;47.542;19.090;2022-12-07T18:43:52;100262.66;;;2.25;81.87
75923;BME280;64602;47.542;19.090;2022-12-07T18:48:54;100250.06;;;2.12;81.84
75923;BME280;64602;47.542;19.090;2022-12-07T18:53:59;100268.56;;;2.07;82.02
75923;BME280;64602;47.542;19.090;2022-12-07T18:59:04;100261.16;;;2.03;82.72
75923;BME280;64602;47.542;19.090;2022-12-07T19:04:24;100275.06;;;1.91;83.05
75923;BME280;64602;47.542;19.090;2022-12-07T19:09:26;100276.31;;;1.89;83.10
75923;BME280;64602;47.542;19.090;2022-12-07T19:14:31;100269.25;;;1.81;83.24
75923;BME280;64602;47.542;19.090;2022-12-07T19:19:36;100268.25;;;1.82;83.58
75923;BME280;64602;47.542;19.090;2022-12-07T19:24:39;100285.53;;;1.80;83.27
75923;BME280;64602;47.542;19.090;2022-12-07T19:29:41;100277.00;;;1.69;83.65
75923;BME280;64602;47.542;19.090;2022-12-07T19:34:45;100273.00;;;1.52;83.74
75923;BME280;64602;47.542;19.090;2022-12-07T19:39:47;100277.94;;;1.48;84.36
75923;BME280;64602;47.542;19.090;2022-12-07T19:44:52;100287.81;;;1.55;84.68
75923;BME280;64602;47.542;19.090;2022-12-07T19:49:54;100275.19;;;1.42;84.74
75923;BME280;64602;47.542;19.090;2022-12-07T19:54:56;100280.53;;;1.42;84.83
75923;BME280;64602;47.542;19.090;2022-12-07T19:59:58;100278.44;;;1.37;85.08
75923;BME280;64602;47.542;19.090;2022-12-07T20:05:00;100267.28;;;1.27;85.06
75923;BME280;64602;47.542;19.090;2022-12-07T20:10:07;100284.53;;;1.24;85.00
75923;BME280;64602;47.542;19.090;2022-12-07T20:15:09;100287.56;;;1.21;85.42
75923;BME280;64602;47.542;19.090;2022-12-07T20:20:11;100287.22;;;1.24;85.50
75923;BME280;64602;47.542;19.090;2022-12-07T20:25:14;100286.72;;;1.14;85.37
75923;BME280;64602;47.542;19.090;2022-12-07T20:30:20;100290.09;;;1.01;85.44
75923;BME280;64602;47.542;19.090;2022-12-07T20:35:22;100296.72;;;1.05;85.90
75923;BME280;64602;47.542;19.090;2022-12-07T20:40:24;100305.53;;;1.06;86.06
75923;BME280;64602;47.542;19.090;2022-12-07T20:45:26;100314.78;;;1.03;86.18
75923;BME280;64602;47.542;19.090;2022-12-07T20:50:28;100305.22;;;0.94;86.20
75923;BME280;64602;47.542;19.090;2022-12-07T20:55:31;100299.84;;;0.88;85.93
75923;BME280;64602;47.542;19.090;2022-12-07T21:00:34;100298.22;;;0.72;86.32
75923;BME280;64602;47.542;19.090;2022-12-07T21:05:36;100297.66;;;0.76;86.55
75923;BME280;64602;47.542;19.090;2022-12-07T21:10:38;100315.34;;;0.77;86.55
75923;BME280;64602;47.542;19.090;2022-12-07T21:15:40;100317.75;;;0.72;86.79
